sensor_id;sensor_type;location;lat;lon;timestamp;temperature;humidity
71184;DHT22;58887;51.980;4.464;2022-08-25T00:00:58;23.73;80.45
71184;DHT22;58887;51.980;4.464;2022-08-25T00:03:23;23.68;80.13
71184;DHT22;58887;51.980;4.464;2022-08-25T00:05:49;23.66;80.76
71184;DHT22;58887;51.980;4.464;2022-08-25T00:08:14;23.61;80.66
71184;DHT22;58887;51.980;4.464;2022-08-25T00:10:39;23.58;80.68
71184;DHT22;58887;51.980;4.464;2022-08-25T00:13:05;23.55;80.95
71184;DHT22;58887;51.980;4.464;2022-08-25T00:15:31;23.57;80.93
71184;DHT22;58887;51.980;4.464;2022-08-25T00:17:58;23.52;80.59
71184;DHT22;58887;51.980;4.464;2022-08-25T00:20:27;23.48;80.79
71184;DHT22;58887;51.980;4.464;2022-08-25T00:22:53;23.41;81.03
71184;DHT22;58887;51.980;4.464;2022-08-25T00:25:20;23.37;80.79
71184;DHT22;58887;51.980;4.464;2022-08-25T00:27:46;23.32;81.08
71184;DHT22;58887;51.980;4.464;2022-08-25T00:30:12;23.31;81.15
71184;DHT22;58887;51.980;4.464;2022-08-25T00:32:39;23.35;81.28
71184;DHT22;58887;51.980;4.464;2022-08-25T00:35:05;23.35;81.22
71184;DHT22;58887;51.980;4.464;2022-08-25T00:37:31;23.32;81.23
71184;DHT22;58887;51.980;4.464;2022-08-25T00:39:57;23.28;81.29
71184;DHT22;58887;51.980;4.464;2022-08-25T00:42:24;23.30;81.63
71184;DHT22;58887;51.980;4.464;2022-08-25T00:44:49;23.28;81.70
71184;DHT22;58887;51.980;4.464;2022-08-25T00:47:15;23.27;81.53
71184;DHT22;58887;51.980;4.464;2022-08-25T00:49:46;23.25;81.68
71184;DHT22;58887;51.980;4.464;2022-08-25T00:52:28;23.28;81.92
71184;DHT22;58887;51.980;4.464;2022-08-25T00:55:06;23.31;81.67
71184;DHT22;58887;51.980;4.464;2022-08-25T00:57:37;23.31;81.48
71184;DHT22;58887;51.980;4.464;2022-08-25T01:00:17;23.32;81.54
71184;DHT22;58887;51.980;4.464;2022-08-25T01:02:44;23.31;81.52
71184;DHT22;58887;51.980;4.464;2022-08-25T01:05:10;23.28;81.69
71184;DHT22;58887;51.980;4.464;2022-08-25T01:07:37;23.27;81.64
71184;DHT22;58887;51.980;4.464;2022-08-25T01:10:05;23.25;81.78
71184;DHT22;58887;51.980;4.464;2022-08-25T01:12:33;23.22;81.55
71184;DHT22;58887;51.980;4.464;2022-08-25T01:15:02;23.14;81.88
71184;DHT22;58887;51.980;4.464;2022-08-25T01:17:54;23.11;82.38
71184;DHT22;58887;51.980;4.464;2022-08-25T01:20:24;23.08;82.11
71184;DHT22;58887;51.980;4.464;2022-08-25T01:22:51;23.08;81.99
71184;DHT22;58887;51.980;4.464;2022-08-25T01:25:31;23.11;81.92
71184;DHT22;58887;51.980;4.464;2022-08-25T01:27:59;23.08;81.89
71184;DHT22;58887;51.980;4.464;2022-08-25T01:30:25;23.07;82.08
71184;DHT22;58887;51.980;4.464;2022-08-25T01:32:51;23.07;82.17
71184;DHT22;58887;51.980;4.464;2022-08-25T01:35:17;23.07;82.02
71184;DHT22;58887;51.980;4.464;2022-08-25T01:37:43;23.06;82.21
71184;DHT22;58887;51.980;4.464;2022-08-25T01:40:09;23.03;82.13
71184;DHT22;58887;51.980;4.464;2022-08-25T01:43:02;23.01;82.07
71184;DHT22;58887;51.980;4.464;2022-08-25T01:45:32;22.96;82.21
71184;DHT22;58887;51.980;4.464;2022-08-25T01:47:58;22.93;82.41
71184;DHT22;58887;51.980;4.464;2022-08-25T01:50:24;22.91;82.32
71184;DHT22;58887;51.980;4.464;2022-08-25T01:52:59;22.89;82.21
71184;DHT22;58887;51.980;4.464;2022-08-25T01:55:27;22.89;82.23
71184;DHT22;58887;51.980;4.464;2022-08-25T01:57:52;22.83;82.19
71184;DHT22;58887;51.980;4.464;2022-08-25T02:00:19;22.86;82.27
71184;DHT22;58887;51.980;4.464;2022-08-25T02:02:45;22.80;82.13
71184;DHT22;58887;51.980;4.464;2022-08-25T02:05:13;22.82;82.05
71184;DHT22;58887;51.980;4.464;2022-08-25T02:07:41;22.77;82.16
71184;DHT22;58887;51.980;4.464;2022-08-25T02:10:08;22.79;82.06
71184;DHT22;58887;51.980;4.464;2022-08-25T02:12:34;22.72;82.22
71184;DHT22;58887;51.980;4.464;2022-08-25T02:15:03;22.70;82.35
71184;DHT22;58887;51.980;4.464;2022-08-25T02:17:30;22.69;82.38
71184;DHT22;58887;51.980;4.464;2022-08-25T02:19:55;22.67;82.32
71184;DHT22;58887;51.980;4.464;2022-08-25T02:22:22;22.70;82.34
71184;DHT22;58887;51.980;4.464;2022-08-25T02:24:48;22.64;82.14
71184;DHT22;58887;51.980;4.464;2022-08-25T02:27:13;22.62;82.40
71184;DHT22;58887;51.980;4.464;2022-08-25T02:29:39;22.67;82.40
71184;DHT22;58887;51.980;4.464;2022-08-25T02:32:05;22.63;82.26
71184;DHT22;58887;51.980;4.464;2022-08-25T02:34:31;22.57;81.97
71184;DHT22;58887;51.980;4.464;2022-08-25T02:36:58;22.55;82.15
71184;DHT22;58887;51.980;4.464;2022-08-25T02:39:25;22.56;82.12
71184;DHT22;58887;51.980;4.464;2022-08-25T02:41:50;22.56;82.28
71184;DHT22;58887;51.980;4.464;2022-08-25T02:44:16;22.48;82.25
71184;DHT22;58887;51.980;4.464;2022-08-25T02:46:41;22.49;82.33
71184;DHT22;58887;51.980;4.464;2022-08-25T02:49:07;22.45;82.21
71184;DHT22;58887;51.980;4.464;2022-08-25T02:51:33;22.42;82.20
71184;DHT22;58887;51.980;4.464;2022-08-25T02:54:00;22.35;82.05
71184;DHT22;58887;51.980;4.464;2022-08-25T02:56:28;22.35;82.10
71184;DHT22;58887;51.980;4.464;2022-08-25T02:58:54;22.36;81.98
71184;DHT22;58887;51.980;4.464;2022-08-25T03:01:20;22.36;81.99
71184;DHT22;58887;51.980;4.464;2022-08-25T03:03:47;22.32;81.34
71184;DHT22;58887;51.980;4.464;2022-08-25T03:06:16;22.28;81.66
71184;DHT22;58887;51.980;4.464;2022-08-25T03:08:42;22.21;81.41
71184;DHT22;58887;51.980;4.464;2022-08-25T03:11:09;22.22;81.60
71184;DHT22;58887;51.980;4.464;2022-08-25T03:13:34;22.16;81.71
71184;DHT22;58887;51.980;4.464;2022-08-25T03:16:01;22.15;81.83
71184;DHT22;58887;51.980;4.464;2022-08-25T03:18:29;22.12;81.65
71184;DHT22;58887;51.980;4.464;2022-08-25T03:20:54;22.12;81.46
71184;DHT22;58887;51.980;4.464;2022-08-25T03:23:20;22.08;81.62
71184;DHT22;58887;51.980;4.464;2022-08-25T03:25:45;22.09;81.55
71184;DHT22;58887;51.980;4.464;2022-08-25T03:28:30;22.06;81.33
71184;DHT22;58887;51.980;4.464;2022-08-25T03:31:01;22.01;81.19
71184;DHT22;58887;51.980;4.464;2022-08-25T03:33:28;22.00;81.01
71184;DHT22;58887;51.980;4.464;2022-08-25T03:35:54;21.97;80.88
71184;DHT22;58887;51.980;4.464;2022-08-25T03:38:24;21.98;80.94
71184;DHT22;58887;51.980;4.464;2022-08-25T03:40:50;21.95;80.58
71184;DHT22;58887;51.980;4.464;2022-08-25T03:43:16;21.90;80.41
71184;DHT22;58887;51.980;4.464;2022-08-25T03:45:43;21.88;80.27
71184;DHT22;58887;51.980;4.464;2022-08-25T03:48:09;21.84;80.32
71184;DHT22;58887;51.980;4.464;2022-08-25T03:50:35;21.78;80.18
71184;DHT22;58887;51.980;4.464;2022-08-25T03:53:01;21.74;80.01
71184;DHT22;58887;51.980;4.464;2022-08-25T03:55:27;21.71;79.87
71184;DHT22;58887;51.980;4.464;2022-08-25T03:57:53;21.73;79.69
71184;DHT22;58887;51.980;4.464;2022-08-25T04:00:21;21.65;79.74
71184;DHT22;58887;51.980;4.464;2022-08-25T04:02:47;21.63;79.65
71184;DHT22;58887;51.980;4.464;2022-08-25T04:05:13;21.57;79.75
71184;DHT22;58887;51.980;4.464;2022-08-25T04:07:39;21.50;79.75
71184;DHT22;58887;51.980;4.464;2022-08-25T04:10:08;21.53;79.36
71184;DHT22;58887;51.980;4.464;2022-08-25T04:12:35;21.51;79.09
71184;DHT22;58887;51.980;4.464;2022-08-25T04:15:03;21.44;78.92
71184;DHT22;58887;51.980;4.464;2022-08-25T04:17:28;21.37;79.10
71184;DHT22;58887;51.980;4.464;2022-08-25T04:19:54;21.35;79.22
71184;DHT22;58887;51.980;4.464;2022-08-25T04:22:20;21.29;79.46
71184;DHT22;58887;51.980;4.464;2022-08-25T04:24:45;21.25;79.44
71184;DHT22;58887;51.980;4.464;2022-08-25T04:27:11;21.19;79.45
71184;DHT22;58887;51.980;4.464;2022-08-25T04:29:37;21.16;79.66
71184;DHT22;58887;51.980;4.464;2022-08-25T04:32:05;21.12;79.30
71184;DHT22;58887;51.980;4.464;2022-08-25T04:34:31;21.07;79.33
71184;DHT22;58887;51.980;4.464;2022-08-25T04:36:59;21.09;79.28
71184;DHT22;58887;51.980;4.464;2022-08-25T04:39:25;21.06;79.15
71184;DHT22;58887;51.980;4.464;2022-08-25T04:41:50;21.00;79.11
71184;DHT22;58887;51.980;4.464;2022-08-25T04:44:16;20.99;79.12
71184;DHT22;58887;51.980;4.464;2022-08-25T04:46:42;20.96;79.13
71184;DHT22;58887;51.980;4.464;2022-08-25T04:49:08;20.94;78.96
71184;DHT22;58887;51.980;4.464;2022-08-25T04:51:37;20.95;78.79
71184;DHT22;58887;51.980;4.464;2022-08-25T04:54:07;20.95;78.70
71184;DHT22;58887;51.980;4.464;2022-08-25T04:56:33;20.96;78.54
71184;DHT22;58887;51.980;4.464;2022-08-25T04:59:11;20.95;78.65
71184;DHT22;58887;51.980;4.464;2022-08-25T05:01:37;20.98;78.48
71184;DHT22;58887;51.980;4.464;2022-08-25T05:04:06;20.98;78.38
71184;DHT22;58887;51.980;4.464;2022-08-25T05:06:32;21.02;78.23
71184;DHT22;58887;51.980;4.464;2022-08-25T05:09:00;21.03;78.20
71184;DHT22;58887;51.980;4.464;2022-08-25T05:11:26;21.00;78.28
71184;DHT22;58887;51.980;4.464;2022-08-25T05:13:54;21.03;78.36
71184;DHT22;58887;51.980;4.464;2022-08-25T05:16:22;20.99;78.57
71184;DHT22;58887;51.980;4.464;2022-08-25T05:18:49;21.00;78.56
71184;DHT22;58887;51.980;4.464;2022-08-25T05:21:18;21.00;78.77
71184;DHT22;58887;51.980;4.464;2022-08-25T05:23:45;21.00;78.48
71184;DHT22;58887;51.980;4.464;2022-08-25T05:26:17;21.03;78.49
71184;DHT22;58887;51.980;4.464;2022-08-25T05:28:42;21.05;78.68
71184;DHT22;58887;51.980;4.464;2022-08-25T05:31:11;21.13;78.44
71184;DHT22;58887;51.980;4.464;2022-08-25T05:33:38;21.15;78.12
71184;DHT22;58887;51.980;4.464;2022-08-25T05:36:04;21.19;77.94
71184;DHT22;58887;51.980;4.464;2022-08-25T05:38:30;21.26;77.85
71184;DHT22;58887;51.980;4.464;2022-08-25T05:41:03;21.32;77.98
71184;DHT22;58887;51.980;4.464;2022-08-25T05:43:29;21.40;77.61
71184;DHT22;58887;51.980;4.464;2022-08-25T05:46:01;21.47;77.53
71184;DHT22;58887;51.980;4.464;2022-08-25T05:48:26;21.54;77.27
71184;DHT22;58887;51.980;4.464;2022-08-25T05:50:54;21.63;76.98
71184;DHT22;58887;51.980;4.464;2022-08-25T05:53:21;21.74;76.48
71184;DHT22;58887;51.980;4.464;2022-08-25T05:55:47;21.84;76.35
71184;DHT22;58887;51.980;4.464;2022-08-25T05:58:13;21.95;75.22
71184;DHT22;58887;51.980;4.464;2022-08-25T06:00:39;22.00;75.66
71184;DHT22;58887;51.980;4.464;2022-08-25T06:03:05;22.09;75.70
71184;DHT22;58887;51.980;4.464;2022-08-25T06:05:30;22.18;74.89
71184;DHT22;58887;51.980;4.464;2022-08-25T06:07:56;22.28;74.27
71184;DHT22;58887;51.980;4.464;2022-08-25T06:10:22;22.35;73.75
71184;DHT22;58887;51.980;4.464;2022-08-25T06:12:48;22.35;73.63
71184;DHT22;58887;51.980;4.464;2022-08-25T06:15:21;22.39;74.04
71184;DHT22;58887;51.980;4.464;2022-08-25T06:17:48;22.46;73.83
71184;DHT22;58887;51.980;4.464;2022-08-25T06:20:17;22.55;73.73
71184;DHT22;58887;51.980;4.464;2022-08-25T06:22:44;22.56;73.76
71184;DHT22;58887;51.980;4.464;2022-08-25T06:25:12;22.69;72.58
71184;DHT22;58887;51.980;4.464;2022-08-25T06:27:38;22.84;71.59
71184;DHT22;58887;51.980;4.464;2022-08-25T06:30:06;23.01;70.46
71184;DHT22;58887;51.980;4.464;2022-08-25T06:32:37;23.04;69.87
71184;DHT22;58887;51.980;4.464;2022-08-25T06:35:10;23.11;68.37
71184;DHT22;58887;51.980;4.464;2022-08-25T06:37:37;23.25;68.37
71184;DHT22;58887;51.980;4.464;2022-08-25T06:40:05;23.34;68.31
71184;DHT22;58887;51.980;4.464;2022-08-25T06:42:34;23.40;67.40
71184;DHT22;58887;51.980;4.464;2022-08-25T06:45:00;23.51;67.81
71184;DHT22;58887;51.980;4.464;2022-08-25T06:47:25;23.68;66.24
71184;DHT22;58887;51.980;4.464;2022-08-25T06:49:51;23.76;65.98
71184;DHT22;58887;51.980;4.464;2022-08-25T06:52:16;23.71;66.26
71184;DHT22;58887;51.980;4.464;2022-08-25T06:54:42;23.83;66.19
71184;DHT22;58887;51.980;4.464;2022-08-25T06:57:08;23.92;65.64
71184;DHT22;58887;51.980;4.464;2022-08-25T06:59:35;23.99;64.95
71184;DHT22;58887;51.980;4.464;2022-08-25T07:02:02;24.10;65.78
71184;DHT22;58887;51.980;4.464;2022-08-25T07:04:28;24.13;64.51
71184;DHT22;58887;51.980;4.464;2022-08-25T07:06:53;24.21;64.04
71184;DHT22;58887;51.980;4.464;2022-08-25T07:09:19;24.31;64.60
71184;DHT22;58887;51.980;4.464;2022-08-25T07:11:45;24.46;63.74
71184;DHT22;58887;51.980;4.464;2022-08-25T07:14:12;24.60;61.92
71184;DHT22;58887;51.980;4.464;2022-08-25T07:16:40;24.68;61.90
71184;DHT22;58887;51.980;4.464;2022-08-25T07:19:06;24.82;61.17
71184;DHT22;58887;51.980;4.464;2022-08-25T07:21:35;24.96;60.85
71184;DHT22;58887;51.980;4.464;2022-08-25T07:24:04;25.19;58.89
71184;DHT22;58887;51.980;4.464;2022-08-25T07:26:32;25.28;58.57
71184;DHT22;58887;51.980;4.464;2022-08-25T07:29:03;25.45;58.02
71184;DHT22;58887;51.980;4.464;2022-08-25T07:31:28;25.49;57.72
71184;DHT22;58887;51.980;4.464;2022-08-25T07:33:54;25.66;56.62
71184;DHT22;58887;51.980;4.464;2022-08-25T07:36:38;25.90;56.92
71184;DHT22;58887;51.980;4.464;2022-08-25T07:39:04;26.02;55.84
71184;DHT22;58887;51.980;4.464;2022-08-25T07:41:30;25.93;55.95
71184;DHT22;58887;51.980;4.464;2022-08-25T07:43:57;25.97;56.10
71184;DHT22;58887;51.980;4.464;2022-08-25T07:46:22;26.07;54.84
71184;DHT22;58887;51.980;4.464;2022-08-25T07:48:48;26.02;55.19
71184;DHT22;58887;51.980;4.464;2022-08-25T07:51:13;26.25;54.82
71184;DHT22;58887;51.980;4.464;2022-08-25T07:53:40;26.51;55.43
71184;DHT22;58887;51.980;4.464;2022-08-25T07:56:12;26.76;54.21
71184;DHT22;58887;51.980;4.464;2022-08-25T07:58:39;26.99;53.92
71184;DHT22;58887;51.980;4.464;2022-08-25T08:01:06;27.11;52.24
71184;DHT22;58887;51.980;4.464;2022-08-25T08:03:33;27.24;51.13
71184;DHT22;58887;51.980;4.464;2022-08-25T08:06:07;27.47;52.51
71184;DHT22;58887;51.980;4.464;2022-08-25T08:08:36;27.51;49.87
71184;DHT22;58887;51.980;4.464;2022-08-25T08:11:02;27.59;50.82
71184;DHT22;58887;51.980;4.464;2022-08-25T08:13:27;27.72;50.95
71184;DHT22;58887;51.980;4.464;2022-08-25T08:15:53;27.91;51.58
71184;DHT22;58887;51.980;4.464;2022-08-25T08:18:18;27.72;48.37
71184;DHT22;58887;51.980;4.464;2022-08-25T08:20:46;27.92;49.53
71184;DHT22;58887;51.980;4.464;2022-08-25T08:23:14;28.08;48.00
71184;DHT22;58887;51.980;4.464;2022-08-25T08:25:40;28.10;47.58
71184;DHT22;58887;51.980;4.464;2022-08-25T08:28:05;28.29;47.43
71184;DHT22;58887;51.980;4.464;2022-08-25T08:30:31;28.54;47.40
71184;DHT22;58887;51.980;4.464;2022-08-25T08:32:56;28.78;46.04
71184;DHT22;58887;51.980;4.464;2022-08-25T08:35:22;28.90;45.82
71184;DHT22;58887;51.980;4.464;2022-08-25T08:37:47;28.84;44.84
71184;DHT22;58887;51.980;4.464;2022-08-25T08:40:18;29.36;44.63
71184;DHT22;58887;51.980;4.464;2022-08-25T08:42:54;29.62;44.16
71184;DHT22;58887;51.980;4.464;2022-08-25T08:45:43;29.87;42.90
71184;DHT22;58887;51.980;4.464;2022-08-25T08:51:19;30.18;42.87
71184;DHT22;58887;51.980;4.464;2022-08-25T08:53:55;30.16;43.48
71184;DHT22;58887;51.980;4.464;2022-08-25T08:56:35;30.34;43.02
71184;DHT22;58887;51.980;4.464;2022-08-25T08:59:08;31.02;41.95
71184;DHT22;58887;51.980;4.464;2022-08-25T09:01:47;31.16;41.29
71184;DHT22;58887;51.980;4.464;2022-08-25T09:04:26;31.47;40.21
71184;DHT22;58887;51.980;4.464;2022-08-25T09:06:54;31.89;39.73
71184;DHT22;58887;51.980;4.464;2022-08-25T09:09:28;31.82;39.42
71184;DHT22;58887;51.980;4.464;2022-08-25T09:15:03;32.11;38.94
71184;DHT22;58887;51.980;4.464;2022-08-25T09:26:28;33.18;36.27
71184;DHT22;58887;51.980;4.464;2022-08-25T09:29:08;32.70;37.03
71184;DHT22;58887;51.980;4.464;2022-08-25T09:31:39;32.25;37.62
71184;DHT22;58887;51.980;4.464;2022-08-25T09:34:20;32.29;38.56
71184;DHT22;58887;51.980;4.464;2022-08-25T09:36:46;32.60;36.89
71184;DHT22;58887;51.980;4.464;2022-08-25T09:39:15;33.07;36.07
71184;DHT22;58887;51.980;4.464;2022-08-25T09:41:48;33.49;35.19
71184;DHT22;58887;51.980;4.464;2022-08-25T09:44:46;33.72;35.47
71184;DHT22;58887;51.980;4.464;2022-08-25T09:47:25;33.96;35.38
71184;DHT22;58887;51.980;4.464;2022-08-25T09:50:00;34.67;33.84
71184;DHT22;58887;51.980;4.464;2022-08-25T09:57:47;35.38;31.61
71184;DHT22;58887;51.980;4.464;2022-08-25T10:02:40;36.17;29.96
71184;DHT22;58887;51.980;4.464;2022-08-25T10:06:18;36.45;29.55
71184;DHT22;58887;51.980;4.464;2022-08-25T10:08:33;36.48;30.21
71184;DHT22;58887;51.980;4.464;2022-08-25T10:11:03;36.75;29.15
71184;DHT22;58887;51.980;4.464;2022-08-25T10:13:39;36.34;29.99
71184;DHT22;58887;51.980;4.464;2022-08-25T10:16:26;36.14;31.06
71184;DHT22;58887;51.980;4.464;2022-08-25T10:19:22;36.16;30.17
71184;DHT22;58887;51.980;4.464;2022-08-25T10:22:26;36.45;29.22
71184;DHT22;58887;51.980;4.464;2022-08-25T10:25:00;36.37;29.15
71184;DHT22;58887;51.980;4.464;2022-08-25T10:32:55;36.53;29.56
71184;DHT22;58887;51.980;4.464;2022-08-25T10:35:58;37.20;28.66
71184;DHT22;58887;51.980;4.464;2022-08-25T10:38:41;37.34;27.26
71184;DHT22;58887;51.980;4.464;2022-08-25T10:44:33;37.74;26.97
71184;DHT22;58887;51.980;4.464;2022-08-25T10:47:39;38.19;26.60
71184;DHT22;58887;51.980;4.464;2022-08-25T10:50:32;38.51;27.65
71184;DHT22;58887;51.980;4.464;2022-08-25T11:04:32;39.78;26.30
71184;DHT22;58887;51.980;4.464;2022-08-25T11:07:11;40.06;25.57
71184;DHT22;58887;51.980;4.464;2022-08-25T11:09:43;39.41;24.60
71184;DHT22;58887;51.980;4.464;2022-08-25T11:12:15;38.76;25.67
71184;DHT22;58887;51.980;4.464;2022-08-25T11:14:49;39.09;25.89
71184;DHT22;58887;51.980;4.464;2022-08-25T11:17:26;39.55;24.96
71184;DHT22;58887;51.980;4.464;2022-08-25T11:19:59;38.33;25.65
71184;DHT22;58887;51.980;4.464;2022-08-25T11:22:35;37.68;26.02
71184;DHT22;58887;51.980;4.464;2022-08-25T11:25:24;36.93;26.80
71184;DHT22;58887;51.980;4.464;2022-08-25T11:28:02;36.17;28.27
71184;DHT22;58887;51.980;4.464;2022-08-25T11:30:30;35.49;29.26
71184;DHT22;58887;51.980;4.464;2022-08-25T11:32:56;35.14;29.62
71184;DHT22;58887;51.980;4.464;2022-08-25T11:35:36;34.78;30.64
71184;DHT22;58887;51.980;4.464;2022-08-25T11:51:53;35.38;30.29
71184;DHT22;58887;51.980;4.464;2022-08-25T11:54:42;34.99;30.22
71184;DHT22;58887;51.980;4.464;2022-08-25T11:57:18;34.47;30.47
71184;DHT22;58887;51.980;4.464;2022-08-25T12:06:13;37.58;27.27
71184;DHT22;58887;51.980;4.464;2022-08-25T12:08:03;38.58;26.39
71184;DHT22;58887;51.980;4.464;2022-08-25T12:13:25;38.39;27.63
71184;DHT22;58887;51.980;4.464;2022-08-25T12:25:57;39.52;26.04
71184;DHT22;58887;51.980;4.464;2022-08-25T12:28:38;38.66;26.44
71184;DHT22;58887;51.980;4.464;2022-08-25T12:31:19;38.97;27.80
71184;DHT22;58887;51.980;4.464;2022-08-25T12:34:06;38.94;26.02
71184;DHT22;58887;51.980;4.464;2022-08-25T12:36:35;38.58;26.31
71184;DHT22;58887;51.980;4.464;2022-08-25T12:39:22;38.12;27.76
71184;DHT22;58887;51.980;4.464;2022-08-25T12:41:57;39.24;26.41
71184;DHT22;58887;51.980;4.464;2022-08-25T12:44:37;39.45;26.65
71184;DHT22;58887;51.980;4.464;2022-08-25T12:49:51;40.11;26.35
71184;DHT22;58887;51.980;4.464;2022-08-25T12:52:23;40.30;25.10
71184;DHT22;58887;51.980;4.464;2022-08-25T12:54:58;39.65;26.17
71184;DHT22;58887;51.980;4.464;2022-08-25T12:57:32;40.12;26.24
71184;DHT22;58887;51.980;4.464;2022-08-25T13:11:23;39.64;27.51
71184;DHT22;58887;51.980;4.464;2022-08-25T13:16:58;39.13;27.75
71184;DHT22;58887;51.980;4.464;2022-08-25T13:19:28;39.34;27.89
71184;DHT22;58887;51.980;4.464;2022-08-25T13:21:56;39.11;28.37
71184;DHT22;58887;51.980;4.464;2022-08-25T13:24:34;39.37;27.88
71184;DHT22;58887;51.980;4.464;2022-08-25T13:27:06;39.86;28.52
71184;DHT22;58887;51.980;4.464;2022-08-25T13:29:36;39.65;29.30
71184;DHT22;58887;51.980;4.464;2022-08-25T13:32:17;39.88;29.71
71184;DHT22;58887;51.980;4.464;2022-08-25T13:34:49;40.03;28.50
71184;DHT22;58887;51.980;4.464;2022-08-25T13:37:18;40.49;28.79
71184;DHT22;58887;51.980;4.464;2022-08-25T13:42:39;40.56;27.42
71184;DHT22;58887;51.980;4.464;2022-08-25T13:45:07;40.24;27.23
71184;DHT22;58887;51.980;4.464;2022-08-25T13:47:36;40.35;28.53
71184;DHT22;58887;51.980;4.464;2022-08-25T13:55:31;38.73;28.97
71184;DHT22;58887;51.980;4.464;2022-08-25T13:57:59;38.77;28.84
71184;DHT22;58887;51.980;4.464;2022-08-25T14:00:31;38.08;30.08
71184;DHT22;58887;51.980;4.464;2022-08-25T14:02:58;37.34;30.83
71184;DHT22;58887;51.980;4.464;2022-08-25T14:07:56;37.26;29.09
71184;DHT22;58887;51.980;4.464;2022-08-25T14:11:01;38.24;30.47
71184;DHT22;58887;51.980;4.464;2022-08-25T14:15:52;39.76;28.72
71184;DHT22;58887;51.980;4.464;2022-08-25T14:18:21;39.50;28.94
71184;DHT22;58887;51.980;4.464;2022-08-25T14:20:52;39.23;28.68
71184;DHT22;58887;51.980;4.464;2022-08-25T14:23:24;38.99;30.05
71184;DHT22;58887;51.980;4.464;2022-08-25T14:25:56;37.95;30.93
71184;DHT22;58887;51.980;4.464;2022-08-25T14:28:25;38.09;31.48
71184;DHT22;58887;51.980;4.464;2022-08-25T14:30:59;38.42;30.55
71184;DHT22;58887;51.980;4.464;2022-08-25T14:33:32;38.75;30.03
71184;DHT22;58887;51.980;4.464;2022-08-25T14:36:00;39.54;28.85
71184;DHT22;58887;51.980;4.464;2022-08-25T14:38:29;39.23;28.18
71184;DHT22;58887;51.980;4.464;2022-08-25T14:40:55;38.77;29.42
71184;DHT22;58887;51.980;4.464;2022-08-25T14:43:21;38.28;32.71
71184;DHT22;58887;51.980;4.464;2022-08-25T14:45:47;38.08;33.29
71184;DHT22;58887;51.980;4.464;2022-08-25T14:48:24;37.33;35.86
71184;DHT22;58887;51.980;4.464;2022-08-25T14:50:53;38.01;34.42
71184;DHT22;58887;51.980;4.464;2022-08-25T14:53:19;37.63;34.99
71184;DHT22;58887;51.980;4.464;2022-08-25T14:55:45;36.71;37.02
71184;DHT22;58887;51.980;4.464;2022-08-25T14:58:10;35.45;39.42
71184;DHT22;58887;51.980;4.464;2022-08-25T15:00:40;34.72;41.00
71184;DHT22;58887;51.980;4.464;2022-08-25T15:03:06;34.17;42.84
71184;DHT22;58887;51.980;4.464;2022-08-25T15:05:32;34.26;43.01
71184;DHT22;58887;51.980;4.464;2022-08-25T15:07:57;33.93;43.93
71184;DHT22;58887;51.980;4.464;2022-08-25T15:10:41;34.19;44.16
71184;DHT22;58887;51.980;4.464;2022-08-25T15:13:07;34.20;44.50
71184;DHT22;58887;51.980;4.464;2022-08-25T15:15:37;34.21;44.52
71184;DHT22;58887;51.980;4.464;2022-08-25T15:18:04;33.48;46.35
71184;DHT22;58887;51.980;4.464;2022-08-25T15:20:29;33.06;46.95
71184;DHT22;58887;51.980;4.464;2022-08-25T15:22:55;32.70;48.07
71184;DHT22;58887;51.980;4.464;2022-08-25T15:25:21;32.69;47.66
71184;DHT22;58887;51.980;4.464;2022-08-25T15:27:47;31.23;50.62
71184;DHT22;58887;51.980;4.464;2022-08-25T15:30:14;30.37;53.46
71184;DHT22;58887;51.980;4.464;2022-08-25T15:32:39;30.17;54.12
71184;DHT22;58887;51.980;4.464;2022-08-25T15:35:05;29.70;56.01
71184;DHT22;58887;51.980;4.464;2022-08-25T15:37:31;29.46;57.00
71184;DHT22;58887;51.980;4.464;2022-08-25T15:39:57;28.91;58.42
71184;DHT22;58887;51.980;4.464;2022-08-25T15:42:22;28.97;58.62
71184;DHT22;58887;51.980;4.464;2022-08-25T15:44:49;28.71;59.51
71184;DHT22;58887;51.980;4.464;2022-08-25T15:47:15;28.51;59.83
71184;DHT22;58887;51.980;4.464;2022-08-25T15:49:42;28.23;60.68
71184;DHT22;58887;51.980;4.464;2022-08-25T15:52:07;28.01;61.21
71184;DHT22;58887;51.980;4.464;2022-08-25T15:54:34;27.93;61.60
71184;DHT22;58887;51.980;4.464;2022-08-25T15:57:00;27.81;61.95
71184;DHT22;58887;51.980;4.464;2022-08-25T15:59:27;27.68;62.12
71184;DHT22;58887;51.980;4.464;2022-08-25T16:01:52;27.38;63.11
71184;DHT22;58887;51.980;4.464;2022-08-25T16:04:20;27.38;63.56
71184;DHT22;58887;51.980;4.464;2022-08-25T16:06:49;27.38;63.90
71184;DHT22;58887;51.980;4.464;2022-08-25T16:09:14;27.45;63.57
71184;DHT22;58887;51.980;4.464;2022-08-25T16:11:40;28.30;61.70
71184;DHT22;58887;51.980;4.464;2022-08-25T16:14:08;28.43;60.12
71184;DHT22;58887;51.980;4.464;2022-08-25T16:16:33;28.13;60.72
71184;DHT22;58887;51.980;4.464;2022-08-25T16:18:59;28.40;59.78
71184;DHT22;58887;51.980;4.464;2022-08-25T16:21:30;28.74;58.88
71184;DHT22;58887;51.980;4.464;2022-08-25T16:24:01;28.61;59.07
71184;DHT22;58887;51.980;4.464;2022-08-25T16:26:29;28.94;58.24
71184;DHT22;58887;51.980;4.464;2022-08-25T16:28:55;29.16;57.91
71184;DHT22;58887;51.980;4.464;2022-08-25T16:31:21;29.58;56.71
71184;DHT22;58887;51.980;4.464;2022-08-25T16:33:48;29.93;55.60
71184;DHT22;58887;51.980;4.464;2022-08-25T16:36:17;29.23;56.70
71184;DHT22;58887;51.980;4.464;2022-08-25T16:38:44;28.70;58.66
71184;DHT22;58887;51.980;4.464;2022-08-25T16:41:20;28.49;58.63
71184;DHT22;58887;51.980;4.464;2022-08-25T16:43:47;28.35;59.40
71184;DHT22;58887;51.980;4.464;2022-08-25T16:46:16;27.68;61.72
71184;DHT22;58887;51.980;4.464;2022-08-25T16:48:42;27.33;62.62
71184;DHT22;58887;51.980;4.464;2022-08-25T16:51:10;27.20;63.42
71184;DHT22;58887;51.980;4.464;2022-08-25T16:53:36;27.24;62.99
71184;DHT22;58887;51.980;4.464;2022-08-25T16:56:20;27.11;63.63
71184;DHT22;58887;51.980;4.464;2022-08-25T16:58:55;26.72;64.63
71184;DHT22;58887;51.980;4.464;2022-08-25T17:01:22;26.62;64.83
71184;DHT22;58887;51.980;4.464;2022-08-25T17:03:53;26.57;65.12
71184;DHT22;58887;51.980;4.464;2022-08-25T17:06:21;26.34;65.82
71184;DHT22;58887;51.980;4.464;2022-08-25T17:08:47;26.07;66.64
71184;DHT22;58887;51.980;4.464;2022-08-25T17:11:30;26.11;66.76
71184;DHT22;58887;51.980;4.464;2022-08-25T17:13:58;25.88;66.93
71184;DHT22;58887;51.980;4.464;2022-08-25T17:16:28;25.63;67.85
71184;DHT22;58887;51.980;4.464;2022-08-25T17:18:56;25.50;68.29
71184;DHT22;58887;51.980;4.464;2022-08-25T17:21:23;25.35;68.81
71184;DHT22;58887;51.980;4.464;2022-08-25T17:23:53;25.40;68.81
71184;DHT22;58887;51.980;4.464;2022-08-25T17:26:20;25.30;68.99
71184;DHT22;58887;51.980;4.464;2022-08-25T17:28:46;25.02;70.25
71184;DHT22;58887;51.980;4.464;2022-08-25T17:31:13;25.02;70.36